Impacts TAF Board INFO
FOR SITUATIONAL AWARENESS. NOT TO BE USED FOR FLIGHT PLANNING PURPOSES.
IDs:

KDCA - Washington/National, VA, US

Issued at 2333 UTC 19 Nov 2017
Updated at 0344 UTC 20 Nov 2017
Potential Impact None Slight Moderate High
Time0252Z 20/04Z 20/05Z 20/06Z 20/07Z 20/08Z 20/09Z 20/10Z 20/11Z 20/12Z 20/13Z 20/14Z 20/15Z 20/16Z>>
Type OBS PRVL PRVL PRVL PRVL PRVL PRVL PRVL PRVL PRVL PRVL PRVL PRVL PRVL
VIS 10 >6 >6 >6 >6 >6 >6 >6 >6 >6 >6 >6 >6 >6
CIG 70 60 60 60 -- -- -- -- -- -- -- -- -- --
Cover BKN BKN BKN BKN SCT SCT SCT SCT SCT SCT SCT SCT SCT SCT
FltCat VFR VFR VFR VFR VFR VFR VFR VFR VFR VFR VFR VFR VFR VFR
WX -- -- -- -- -- -- -- -- -- -- -- -- -- --
WDir 290 290 290 290 290 290 290 290 290 290 290 290 290 290
WSpd 12 11 11 11 11 11 11 11 11 11 11 11 11 11
WGst 19 18 18 18 18 18 18 18 18 18 18 18 18 18

Raw TAF
KDCA 192333Z 2000/2024 29011G18KT P6SM BKN060
  FM200700 29011G18KT P6SM SCT060
  FM201700 25009KT P6SM FEW250


Raw METAR
KDCA 200252Z 29012G19KT 10SM BKN070 07/M03 A2995 RMK AO2 SLP140 T00721028 53020
KDCA 200152Z 29013G23KT 10SM FEW055 BKN070 08/M02 A2993 RMK AO2 SLP134 T00781022
KDCA 200052Z 27010KT 10SM SCT055 SCT070 08/M03 A2990 RMK AO2 SLP126 T00781028

METAR Board
Radar Display
Forecast Discussion

FOR SITUATIONAL AWARENESS. NOT TO BE USED FOR FLIGHT PLANNING PURPOSES.